Private Wetterstation Wechselburg
Wetterdaten: Donnerstag, 02.01.2014
Datum Zeit Temp. +2m Bodentemp. Temp.+5cm Temp. Wind Windchill X Diff Temp. Feuchte +2m Feuchte +5cm Sonnenschein Luftdruck Regen Wind Richtung Richtung Sonnenschein UV Taupunkt Windchill Windben
02.01.2014 00:06 -1,6 C 12,7 C -1,2 C -1,1 C -1,1 C 0,5 C 90 % 88 % 0 % 1012,6 hPa 0,0 l/m 0,2 km/h (0 Bft) O-NO 67 0 min 0,0 UV-I -3,0 C -1,1 C 0,0 km/h (0 Bft)
02.01.2014 00:10 -1,6 C 12,7 C -1,3 C -1,0 C -1,0 C 0,6 C 89 % 88 % 0 % 1012,8 hPa 0,0 l/m 0,2 km/h (0 Bft) N-NW 337 0 min 0,0 UV-I -3,2 C -1,0 C 0,0 km/h (0 Bft)
02.01.2014 00:15 -1,7 C 12,7 C -1,3 C -0,9 C -0,9 C 0,8 C 89 % 88 % 0 % 1012,8 hPa 0,0 l/m 0,3 km/h (0 Bft) NO 45 0 min 0,0 UV-I -3,3 C -0,9 C 0,0 km/h (0 Bft)
02.01.2014 00:20 -1,5 C 12,7 C -1,3 C -0,7 C -0,7 C 0,8 C 89 % 88 % 0 % 1012,8 hPa 0,0 l/m 0,3 km/h (0 Bft) O-SO 112 0 min 0,0 UV-I -3,1 C -0,7 C 0,0 km/h (0 Bft)
02.01.2014 00:25 -1,6 C 12,7 C -1,2 C -0,5 C -0,5 C 1,1 C 89 % 88 % 0 % 1012,8 hPa 0,0 l/m 0,2 km/h (0 Bft) NW 315 0 min 0,0 UV-I -3,2 C -0,5 C 0,0 km/h (0 Bft)
02.01.2014 00:30 -1,3 C 12,7 C -0,9 C -0,2 C -0,2 C 1,1 C 90 % 88 % 0 % 1011,9 hPa 0,0 l/m 0,2 km/h (0 Bft) W-SW 247 0 min 0,0 UV-I -2,7 C -0,2 C 0,0 km/h (0 Bft)
02.01.2014 00:35 -1,3 C 12,7 C -0,7 C -0,1 C -0,1 C 1,2 C 90 % 88 % 0 % 1011,9 hPa 0,0 l/m 0,0 km/h (0 Bft) N-NO 22 0 min 0,0 UV-I -2,7 C -0,1 C 0,0 km/h (0 Bft)
02.01.2014 00:41 -1,2 C 12,7 C -0,5 C 0,0 C 0,0 C 1,2 C 90 % 88 % 0 % 1011,9 hPa 0,0 l/m 0,0 km/h (0 Bft) N 0 0 min 0,0 UV-I -2,6 C 0,0 C 0,0 km/h (0 Bft)
02.01.2014 00:58 -0,1 C 12,6 C 0,3 C 0,7 C 0,7 C 0,8 C 91 % 88 % 0 % 1011,3 hPa 0,0 l/m 0,8 km/h (0 Bft) W-SW 247 0 min 0,0 UV-I -1,4 C 0,7 C 4,5 km/h (1 Bft)
02.01.2014 00:59 -0,1 C 12,6 C 0,3 C 0,7 C 0,7 C 0,8 C 91 % 88 % 0 % 1011,3 hPa 0,0 l/m 0,8 km/h (0 Bft) W-SW 247 0 min 0,0 UV-I -1,4 C 0,7 C 0,0 km/h (0 Bft)
02.01.2014 01:00 -0,1 C 12,6 C 0,3 C 0,7 C 0,7 C 0,8 C 91 % 88 % 0 % 1011,3 hPa 0,0 l/m 0,8 km/h (0 Bft) W-SW 247 0 min 0,0 UV-I -1,4 C 0,7 C 0,0 km/h (0 Bft)
02.01.2014 01:05 0,1 C 12,6 C 0,5 C 0,7 C 0,7 C 0,6 C 91 % 88 % 0 % 1011,3 hPa 0,0 l/m 0,6 km/h (0 Bft) W 270 0 min 0,0 UV-I -1,2 C 0,7 C 0,0 km/h (0 Bft)
02.01.2014 01:10 0,4 C 12,5 C 0,7 C 0,9 C 0,9 C 0,5 C 91 % 88 % 0 % 1010,9 hPa 0,0 l/m 0,2 km/h (0 Bft) W 270 0 min 0,0 UV-I -0,9 C 0,9 C 0,0 km/h (0 Bft)
02.01.2014 01:15 0,4 C 12,4 C 0,7 C 0,9 C 0,9 C 0,5 C 90 % 88 % 0 % 1010,9 hPa 0,0 l/m 0,5 km/h (0 Bft) NW 315 0 min 0,0 UV-I -1,0 C 0,9 C 2,3 km/h (1 Bft)
02.01.2014 01:20 0,4 C 12,4 C 0,5 C 0,8 C 0,8 C 0,4 C 90 % 88 % 0 % 1010,9 hPa 0,0 l/m 0,6 km/h (0 Bft) NW 315 0 min 0,0 UV-I -1,0 C 0,8 C 0,0 km/h (0 Bft)
02.01.2014 01:25 0,4 C 12,5 C 0,4 C 0,7 C 0,7 C 0,3 C 89 % 88 % 0 % 1010,9 hPa 0,0 l/m 0,3 km/h (0 Bft) O-NO 67 0 min 0,0 UV-I -1,2 C 0,7 C 0,0 km/h (0 Bft)
02.01.2014 01:30 0,3 C 12,6 C 0,2 C 0,5 C 0,5 C 0,2 C 89 % 88 % 0 % 1010,8 hPa 0,0 l/m 0,0 km/h (0 Bft) W 270 0 min 0,0 UV-I -1,3 C 0,5 C 0,0 km/h (0 Bft)
02.01.2014 01:35 0,3 C 12,4 C 0,3 C 0,5 C 0,5 C 0,2 C 89 % 88 % 0 % 1010,8 hPa 0,0 l/m 0,3 km/h (0 Bft) S-SW 202 0 min 0,0 UV-I -1,3 C 0,5 C 0,0 km/h (0 Bft)
02.01.2014 01:40 0,3 C 12,5 C 0,2 C 0,7 C 0,7 C 0,4 C 89 % 88 % 0 % 1010,8 hPa 0,0 l/m 0,3 km/h (0 Bft) S 180 0 min 0,0 UV-I -1,3 C 0,7 C 0,0 km/h (0 Bft)
02.01.2014 01:45 0,4 C 12,5 C 0,3 C 0,7 C 0,7 C 0,3 C 89 % 88 % 0 % 1010,8 hPa 0,0 l/m 0,0 km/h (0 Bft) SW 225 0 min 0,0 UV-I -1,2 C 0,7 C 0,0 km/h (0 Bft)
02.01.2014 01:50 0,3 C 12,4 C 0,3 C 0,7 C 0,7 C 0,4 C 89 % 87 % 0 % 1011,2 hPa 0,0 l/m 0,2 km/h (0 Bft) O-NO 67 0 min 0,0 UV-I -1,3 C 0,7 C 1,6 km/h (1 Bft)
02.01.2014 01:55 0,4 C 12,3 C 0,4 C 1,0 C 1,0 C 0,6 C 89 % 87 % 0 % 1011,2 hPa 0,0 l/m 0,2 km/h (0 Bft) S-SO 157 0 min 0,0 UV-I -1,2 C 1,0 C 0,0 km/h (0 Bft)
02.01.2014 02:00 0,5 C 12,4 C 0,7 C 1,3 C 1,3 C 0,8 C 89 % 88 % 0 % 1011,2 hPa 0,0 l/m 0,3 km/h (0 Bft) W-SW 247 0 min 0,0 UV-I -1,1 C 1,3 C 0,0 km/h (0 Bft)
02.01.2014 02:05 0,7 C 12,4 C 0,7 C 1,3 C 1,3 C 0,6 C 89 % 87 % 0 % 1011,2 hPa 0,0 l/m 0,3 km/h (0 Bft) NO 45 0 min 0,0 UV-I -0,9 C 1,3 C 0,0 km/h (0 Bft)
02.01.2014 02:10 0,7 C 12,4 C 0,7 C 1,5 C 1,5 C 0,8 C 88 % 87 % 0 % 1010,6 hPa 0,0 l/m 0,0 km/h (0 Bft) W-SW 247 0 min 0,0 UV-I -1,1 C 1,5 C 0,0 km/h (0 Bft)
02.01.2014 02:15 0,7 C 12,4 C 0,7 C 1,7 C 1,7 C 1,0 C 88 % 87 % 0 % 1010,6 hPa 0,0 l/m 0,0 km/h (0 Bft) SO 135 0 min 0,0 UV-I -1,1 C 1,7 C 0,0 km/h (0 Bft)
02.01.2014 02:20 0,9 C 12,2 C 0,9 C 2,0 C 2,0 C 1,1 C 89 % 87 % 0 % 1010,6 hPa 0,0 l/m 0,2 km/h (0 Bft) W 270 0 min 0,0 UV-I -0,7 C 2,0 C 0,0 km/h (0 Bft)
02.01.2014 02:25 1,1 C 12,3 C 1,1 C 2,2 C 2,2 C 1,1 C 89 % 88 % 0 % 1010,6 hPa 0,0 l/m 0,3 km/h (0 Bft) W 270 0 min 0,0 UV-I -0,5 C 2,2 C 0,0 km/h (0 Bft)
02.01.2014 02:30 1,5 C 12,2 C 1,5 C 2,5 C 2,5 C 1,0 C 88 % 88 % 0 % 1010,6 hPa 0,0 l/m 0,6 km/h (0 Bft) SW 225 0 min 0,0 UV-I -0,3 C 2,5 C 0,0 km/h (0 Bft)
02.01.2014 02:35 1,7 C 12,1 C 1,4 C 2,6 C 2,6 C 0,9 C 88 % 88 % 0 % 1010,6 hPa 0,0 l/m 0,3 km/h (0 Bft) O-NO 67 0 min 0,0 UV-I -0,1 C 2,6 C 0,0 km/h (0 Bft)
02.01.2014 02:40 1,8 C 12,2 C 1,5 C 2,7 C 2,7 C 0,9 C 88 % 88 % 0 % 1010,6 hPa 0,0 l/m 0,0 km/h (0 Bft) W-SW 247 0 min 0,0 UV-I 0,0 C 2,7 C 0,0 km/h (0 Bft)
02.01.2014 02:45 1,9 C 12,2 C 1,4 C 2,8 C 2,8 C 0,9 C 88 % 88 % 0 % 1010,6 hPa 0,0 l/m 0,2 km/h (0 Bft) O-SO 112 0 min 0,0 UV-I 0,1 C 2,8 C 0,0 km/h (0 Bft)
02.01.2014 02:50 2,3 C 12,1 C 1,9 C 3,0 C 3,0 C 0,7 C 88 % 88 % 0 % 1010,4 hPa 0,0 l/m 0,6 km/h (0 Bft) O-NO 67 0 min 0,0 UV-I 0,5 C 3,0 C 2,1 km/h (1 Bft)
02.01.2014 02:55 2,5 C 12,1 C 2,3 C 3,2 C 3,2 C 0,7 C 87 % 88 % 0 % 1010,4 hPa 0,0 l/m 0,6 km/h (0 Bft) SO 135 0 min 0,0 UV-I 0,6 C 3,2 C 1,8 km/h (1 Bft)
02.01.2014 03:00 2,9 C 12,1 C 2,7 C 3,4 C 3,4 C 0,5 C 87 % 87 % 0 % 1010,4 hPa 0,0 l/m 1,4 km/h (1 Bft) O-SO 112 0 min 0,0 UV-I 1,0 C 3,4 C 5,0 km/h (1 Bft)
02.01.2014 03:05 3,2 C 12,1 C 2,8 C 3,6 C 3,6 C 0,4 C 86 % 87 % 0 % 1010,4 hPa 0,0 l/m 2,3 km/h (1 Bft) SO 135 0 min 0,0 UV-I 1,1 C 3,6 C 3,7 km/h (1 Bft)
02.01.2014 03:10 3,6 C 12,1 C 3,1 C 3,7 C 3,7 C 0,1 C 84 % 87 % 0 % 1010,6 hPa 0,0 l/m 2,7 km/h (1 Bft) O 90 0 min 0,0 UV-I 1,2 C 3,7 C 3,1 km/h (1 Bft)
02.01.2014 03:15 3,9 C 12,1 C 2,9 C 3,9 C 3,8 C 0,0 C 84 % 86 % 0 % 1010,6 hPa 0,0 l/m 2,3 km/h (1 Bft) O-SO 112 0 min 0,0 UV-I 1,4 C 3,8 C 1,6 km/h (1 Bft)
02.01.2014 03:20 3,9 C 12,1 C 2,9 C 3,9 C 3,8 C 0,0 C 83 % 86 % 0 % 1010,6 hPa 0,0 l/m 1,0 km/h (0 Bft) NO 45 0 min 0,0 UV-I 1,3 C 3,8 C 0,0 km/h (0 Bft)
02.01.2014 03:25 3,9 C 12,1 C 3,1 C 3,9 C 3,8 C 0,0 C 83 % 86 % 0 % 1010,6 hPa 0,0 l/m 0,5 km/h (0 Bft) O-NO 67 0 min 0,0 UV-I 1,3 C 3,8 C 2,6 km/h (1 Bft)
02.01.2014 03:30 4,0 C 12,1 C 3,1 C 4,0 C 3,9 C 0,0 C 82 % 85 % 0 % 1009,9 hPa 0,0 l/m 1,0 km/h (0 Bft) S-SO 157 0 min 0,0 UV-I 1,2 C 3,9 C 0,0 km/h (0 Bft)
02.01.2014 03:35 4,1 C 12,1 C 2,9 C 4,0 C 3,9 C 0,0 C 81 % 85 % 0 % 1009,9 hPa 0,0 l/m 1,0 km/h (0 Bft) SW 225 0 min 0,0 UV-I 1,1 C 3,9 C 0,0 km/h (0 Bft)
02.01.2014 03:40 4,1 C 12,1 C 2,9 C 4,0 C 3,7 C 0,0 C 81 % 85 % 0 % 1009,9 hPa 0,0 l/m 0,3 km/h (0 Bft) S 180 0 min 0,0 UV-I 1,1 C 3,7 C 2,6 km/h (1 Bft)
02.01.2014 03:45 4,1 C 12,1 C 2,7 C 3,9 C 3,6 C 0,0 C 81 % 85 % 0 % 1009,9 hPa 0,0 l/m 0,3 km/h (0 Bft) W-SW 247 0 min 0,0 UV-I 1,1 C 3,6 C 2,3 km/h (1 Bft)
02.01.2014 03:50 4,1 C 12,1 C 2,4 C 3,9 C 3,4 C 0,0 C 81 % 85 % 0 % 1010,0 hPa 0,0 l/m 0,3 km/h (0 Bft) O-SO 112 0 min 0,0 UV-I 1,1 C 3,4 C 0,0 km/h (0 Bft)
02.01.2014 03:55 4,0 C 12,1 C 2,4 C 3,7 C 3,2 C 0,0 C 81 % 85 % 0 % 1010,0 hPa 0,0 l/m 0,5 km/h (0 Bft) O 90 0 min 0,0 UV-I 1,0 C 3,2 C 1,8 km/h (1 Bft)
02.01.2014 04:00 4,0 C 12,1 C 2,3 C 3,7 C 3,0 C 0,0 C 81 % 85 % 0 % 1010,0 hPa 0,0 l/m 1,0 km/h (0 Bft) O-SO 112 0 min 0,0 UV-I 1,0 C 3,0 C 2,1 km/h (1 Bft)
02.01.2014 04:05 3,9 C 12,1 C 2,3 C 3,6 C 3,0 C 0,0 C 81 % 85 % 0 % 1010,0 hPa 0,0 l/m 0,8 km/h (0 Bft) O-NO 67 0 min 0,0 UV-I 0,9 C 3,0 C 0,0 km/h (0 Bft)
02.01.2014 04:10 3,9 C 12,2 C 2,3 C 3,5 C 2,8 C 0,0 C 81 % 85 % 0 % 1009,4 hPa 0,0 l/m 0,2 km/h (0 Bft) W-NW 292 0 min 0,0 UV-I 0,9 C 2,8 C 0,0 km/h (0 Bft)
02.01.2014 04:15 3,9 C 12,1 C 2,3 C 3,5 C 2,7 C 0,0 C 80 % 85 % 0 % 1009,4 hPa 0,0 l/m 0,8 km/h (0 Bft) S 180 0 min 0,0 UV-I 0,8 C 2,7 C 3,1 km/h (1 Bft)
02.01.2014 04:20 4,0 C 12,1 C 2,4 C 3,7 C 3,0 C 0,0 C 80 % 85 % 0 % 1009,4 hPa 0,0 l/m 2,1 km/h (1 Bft) S 180 0 min 0,0 UV-I 0,9 C 3,0 C 6,3 km/h (2 Bft)
02.01.2014 04:25 4,1 C 12,1 C 2,4 C 3,7 C 3,0 C 0,0 C 80 % 85 % 0 % 1009,4 hPa 0,0 l/m 2,1 km/h (1 Bft) O-NO 67 0 min 0,0 UV-I 1,0 C 3,0 C 1,9 km/h (1 Bft)
02.01.2014 04:30 4,0 C 12,1 C 2,5 C 3,7 C 3,2 C 0,0 C 80 % 85 % 0 % 1009,4 hPa 0,0 l/m 1,6 km/h (1 Bft) S-SW 202 0 min 0,0 UV-I 0,9 C 3,2 C 3,2 km/h (1 Bft)
02.01.2014 04:35 4,0 C 12,1 C 2,4 C 3,7 C 3,2 C 0,0 C 80 % 85 % 0 % 1009,4 hPa 0,0 l/m 1,6 km/h (1 Bft) W-SW 247 0 min 0,0 UV-I 0,9 C 3,2 C 4,0 km/h (1 Bft)
02.01.2014 04:40 4,1 C 12,2 C 2,4 C 3,8 C 3,3 C 0,0 C 80 % 85 % 0 % 1009,4 hPa 0,0 l/m 2,3 km/h (1 Bft) S 180 0 min 0,0 UV-I 1,0 C 3,3 C 3,4 km/h (1 Bft)
02.01.2014 04:45 4,0 C 12,2 C 2,5 C 3,8 C 3,3 C 0,0 C 80 % 85 % 0 % 1009,4 hPa 0,0 l/m 2,3 km/h (1 Bft) S-SW 202 0 min 0,0 UV-I 0,9 C 3,3 C 3,9 km/h (1 Bft)
02.01.2014 04:50 3,9 C 12,2 C 2,5 C 3,7 C 3,3 C 0,0 C 80 % 85 % 0 % 1009,5 hPa 0,0 l/m 1,3 km/h (1 Bft) S 180 0 min 0,0 UV-I 0,8 C 3,3 C 2,1 km/h (1 Bft)
02.01.2014 04:55 3,8 C 12,2 C 2,5 C 3,7 C 3,4 C 0,0 C 79 % 85 % 0 % 1009,5 hPa 0,0 l/m 1,0 km/h (0 Bft) W-SW 247 0 min 0,0 UV-I 0,5 C 3,4 C 0,0 km/h (0 Bft)
02.01.2014 05:00 3,8 C 12,2 C 2,4 C 3,7 C 3,4 C 0,0 C 80 % 85 % 0 % 1009,5 hPa 0,0 l/m 1,1 km/h (1 Bft) W 270 0 min 0,0 UV-I 0,7 C 3,4 C 2,4 km/h (1 Bft)
02.01.2014 05:05 3,9 C 12,2 C 2,5 C 3,8 C 3,6 C 0,0 C 80 % 85 % 0 % 1009,5 hPa 0,0 l/m 1,0 km/h (0 Bft) NW 315 0 min 0,0 UV-I 0,8 C 3,6 C 0,0 km/h (0 Bft)
02.01.2014 05:10 4,0 C 12,2 C 2,6 C 3,9 C 3,6 C 0,0 C 80 % 85 % 0 % 1009,2 hPa 0,0 l/m 1,1 km/h (1 Bft) S-SW 202 0 min 0,0 UV-I 0,9 C 3,6 C 3,5 km/h (1 Bft)
02.01.2014 05:15 4,1 C 12,2 C 2,8 C 4,0 C 3,8 C 0,0 C 80 % 85 % 0 % 1009,2 hPa 0,0 l/m 1,6 km/h (1 Bft) SW 225 0 min 0,0 UV-I 1,0 C 3,8 C 2,1 km/h (1 Bft)
02.01.2014 05:20 4,2 C 12,2 C 2,9 C 4,1 C 4,0 C 0,0 C 79 % 84 % 0 % 1009,2 hPa 0,0 l/m 2,1 km/h (1 Bft) SO 135 0 min 0,0 UV-I 0,9 C 4,0 C 6,9 km/h (2 Bft)
02.01.2014 05:25 4,4 C 12,2 C 3,1 C 4,3 C 4,1 C 0,0 C 78 % 85 % 0 % 1009,2 hPa 0,0 l/m 2,3 km/h (1 Bft) W-SW 247 0 min 0,0 UV-I 0,9 C 4,1 C 3,5 km/h (1 Bft)
02.01.2014 05:30 4,4 C 12,2 C 3,1 C 4,4 C 4,3 C 0,0 C 78 % 84 % 0 % 1008,9 hPa 0,0 l/m 2,3 km/h (1 Bft) W-SW 247 0 min 0,0 UV-I 0,9 C 4,3 C 3,7 km/h (1 Bft)
02.01.2014 05:35 4,4 C 12,2 C 3,1 C 4,3 C 4,2 C 0,0 C 78 % 84 % 0 % 1008,9 hPa 0,0 l/m 2,6 km/h (1 Bft) W-SW 247 0 min 0,0 UV-I 0,9 C 4,2 C 2,7 km/h (1 Bft)
02.01.2014 05:40 4,3 C 12,2 C 2,8 C 4,2 C 4,0 C 0,0 C 78 % 84 % 0 % 1008,9 hPa 0,0 l/m 1,6 km/h (1 Bft) W-SW 247 0 min 0,0 UV-I 0,8 C 4,0 C 3,4 km/h (1 Bft)
02.01.2014 05:45 4,2 C 12,2 C 2,8 C 4,1 C 3,9 C 0,0 C 78 % 84 % 0 % 1008,9 hPa 0,0 l/m 0,8 km/h (0 Bft) S 180 0 min 0,0 UV-I 0,7 C 3,9 C 1,6 km/h (1 Bft)
02.01.2014 05:50 4,3 C 12,2 C 3,1 C 4,2 C 4,0 C 0,0 C 78 % 84 % 0 % 1009,0 hPa 0,0 l/m 1,6 km/h (1 Bft) N-NW 337 0 min 0,0 UV-I 0,8 C 4,0 C 2,4 km/h (1 Bft)
02.01.2014 05:55 4,5 C 12,2 C 3,1 C 4,4 C 4,1 C 0,0 C 77 % 84 % 0 % 1009,0 hPa 0,0 l/m 2,4 km/h (1 Bft) S-SW 202 0 min 0,0 UV-I 0,8 C 4,1 C 5,0 km/h (1 Bft)
02.01.2014 06:00 4,4 C 12,2 C 3,2 C 4,3 C 4,2 C 0,0 C 77 % 83 % 0 % 1009,0 hPa 0,0 l/m 2,9 km/h (1 Bft) S-SO 157 0 min 0,0 UV-I 0,7 C 4,2 C 3,9 km/h (1 Bft)
02.01.2014 06:05 4,5 C 12,2 C 3,2 C 4,4 C 4,3 C 0,0 C 77 % 83 % 0 % 1009,0 hPa 0,0 l/m 2,7 km/h (1 Bft) W-SW 247 0 min 0,0 UV-I 0,8 C 4,3 C 4,3 km/h (1 Bft)
02.01.2014 06:10 4,7 C 12,2 C 3,3 C 4,6 C 4,5 C 0,0 C 76 % 83 % 0 % 1009,2 hPa 0,0 l/m 2,6 km/h (1 Bft) NW 315 0 min 0,0 UV-I 0,8 C 4,5 C 7,4 km/h (2 Bft)
02.01.2014 06:15 4,7 C 12,2 C 3,5 C 4,6 C 4,5 C 0,0 C 75 % 82 % 0 % 1009,2 hPa 0,0 l/m 2,9 km/h (1 Bft) O-SO 112 0 min 0,0 UV-I 0,7 C 4,5 C 3,1 km/h (1 Bft)
02.01.2014 06:20 4,7 C 12,2 C 3,5 C 4,6 C 4,5 C 0,0 C 75 % 82 % 0 % 1009,2 hPa 0,0 l/m 1,4 km/h (1 Bft) O 90 0 min 0,0 UV-I 0,7 C 4,5 C 0,0 km/h (0 Bft)
02.01.2014 06:25 4,7 C 12,2 C 3,6 C 4,7 C 4,6 C 0,0 C 74 % 82 % 0 % 1009,2 hPa 0,0 l/m 1,3 km/h (1 Bft) O-SO 112 0 min 0,0 UV-I 0,5 C 4,6 C 3,4 km/h (1 Bft)
02.01.2014 06:30 4,7 C 12,2 C 3,6 C 4,6 C 4,5 C 0,0 C 74 % 81 % 0 % 1009,0 hPa 0,0 l/m 2,7 km/h (1 Bft) O-NO 67 0 min 0,0 UV-I 0,5 C 4,5 C 2,4 km/h (1 Bft)
02.01.2014 06:35 4,5 C 12,2 C 3,6 C 4,4 C 4,2 C 0,0 C 74 % 81 % 0 % 1009,0 hPa 0,0 l/m 3,2 km/h (1 Bft) O 90 0 min 0,0 UV-I 0,3 C 4,2 C 4,3 km/h (1 Bft)
02.01.2014 06:41 4,5 C 12,2 C 3,6 C 4,5 C 4,4 C 0,0 C 74 % 80 % 0 % 1009,0 hPa 0,0 l/m 2,3 km/h (1 Bft) N 0 0 min 0,0 UV-I 0,3 C 4,4 C 4,5 km/h (1 Bft)
02.01.2014 07:00 4,5 C 12,2 C 3,5 C 4,5 C 4,4 C 0,0 C 73 % 79 % 0 % 1009,0 hPa 0,0 l/m 1,9 km/h (1 Bft) W-NW 292 0 min 0,0 UV-I 0,1 C 4,4 C 8,9 km/h (2 Bft)
02.01.2014 07:05 4,4 C 12,2 C 3,3 C 4,4 C 4,3 C 0,0 C 73 % 79 % 0 % 1009,0 hPa 0,0 l/m 1,4 km/h (1 Bft) O-SO 112 0 min 0,0 UV-I -0,0 C 4,3 C 3,1 km/h (1 Bft)
02.01.2014 07:10 4,5 C 12,2 C 3,5 C 4,5 C 4,4 C 0,0 C 73 % 80 % 0 % 1008,6 hPa 0,0 l/m 1,8 km/h (1 Bft) W 270 0 min 0,0 UV-I 0,1 C 4,4 C 2,3 km/h (1 Bft)
02.01.2014 07:15 4,5 C 12,2 C 3,3 C 4,5 C 4,4 C 0,0 C 73 % 80 % 0 % 1008,6 hPa 0,0 l/m 2,3 km/h (1 Bft) S-SW 202 0 min 0,0 UV-I 0,1 C 4,4 C 5,8 km/h (2 Bft)
02.01.2014 07:20 4,4 C 12,2 C 3,2 C 4,4 C 4,3 C 0,0 C 73 % 80 % 0 % 1008,6 hPa 0,0 l/m 2,6 km/h (1 Bft) S-SW 202 0 min 0,0 UV-I -0,0 C 4,3 C 4,5 km/h (1 Bft)
02.01.2014 07:25 4,4 C 12,2 C 3,4 C 4,4 C 4,3 C 0,0 C 73 % 80 % 0 % 1008,6 hPa 0,0 l/m 2,7 km/h (1 Bft) O-NO 67 0 min 0,0 UV-I -0,0 C 4,3 C 1,6 km/h (1 Bft)
02.01.2014 07:30 4,4 C 12,2 C 3,5 C 4,4 C 4,3 C 0,0 C 73 % 80 % 0 % 1008,6 hPa 0,0 l/m 2,3 km/h (1 Bft) O-SO 112 0 min 0,0 UV-I -0,0 C 4,3 C 2,4 km/h (1 Bft)
02.01.2014 07:35 4,5 C 12,2 C 3,4 C 4,4 C 4,3 C 0,0 C 73 % 80 % 0 % 1008,6 hPa 0,0 l/m 2,6 km/h (1 Bft) W-NW 292 0 min 0,0 UV-I 0,1 C 4,3 C 6,9 km/h (2 Bft)
02.01.2014 07:40 4,5 C 12,3 C 3,5 C 4,4 C 4,3 C 0,0 C 73 % 79 % 0 % 1008,6 hPa 0,0 l/m 2,3 km/h (1 Bft) N-NW 337 0 min 0,0 UV-I 0,1 C 4,3 C 1,8 km/h (1 Bft)
02.01.2014 07:45 4,4 C 12,3 C 3,5 C 4,3 C 4,2 C 0,0 C 73 % 79 % 0 % 1008,6 hPa 0,0 l/m 1,3 km/h (1 Bft) NW 315 0 min 0,0 UV-I -0,0 C 4,2 C 2,9 km/h (1 Bft)
02.01.2014 07:50 4,4 C 12,3 C 3,5 C 4,3 C 4,1 C 0,0 C 73 % 79 % 0 % 1008,6 hPa 0,0 l/m 0,6 km/h (0 Bft) O-SO 112 0 min 0,0 UV-I -0,0 C 4,1 C 0,0 km/h (0 Bft)
02.01.2014 07:55 4,3 C 12,3 C 3,5 C 4,2 C 4,0 C 0,0 C 72 % 79 % 0 % 1008,6 hPa 0,0 l/m 0,6 km/h (0 Bft) W-SW 247 0 min 0,0 UV-I -0,3 C 4,0 C 0,0 km/h (0 Bft)
02.01.2014 08:00 4,3 C 12,3 C 3,5 C 4,2 C 4,0 C 0,0 C 72 % 79 % 0 % 1008,6 hPa 0,0 l/m 1,3 km/h (1 Bft) W-SW 247 0 min 0,0 UV-I -0,3 C 4,0 C 1,9 km/h (1 Bft)
02.01.2014 08:05 4,3 C 12,3 C 3,4 C 4,2 C 4,0 C 0,0 C 72 % 79 % 0 % 1008,6 hPa 0,0 l/m 1,9 km/h (1 Bft) W-SW 247 0 min 0,0 UV-I -0,3 C 4,0 C 1,9 km/h (1 Bft)
02.01.2014 08:10 4,3 C 12,3 C 3,4 C 4,2 C 4,1 C 0,0 C 72 % 79 % 0 % 1008,7 hPa 0,0 l/m 2,1 km/h (1 Bft) W-SW 247 0 min 0,0 UV-I -0,3 C 4,1 C 2,7 km/h (1 Bft)
02.01.2014 08:15 4,3 C 12,3 C 3,5 C 4,2 C 4,1 C 0,0 C 72 % 79 % 0 % 1008,7 hPa 0,0 l/m 2,1 km/h (1 Bft) SO 135 0 min 0,0 UV-I -0,3 C 4,1 C 3,2 km/h (1 Bft)
02.01.2014 08:20 4,3 C 12,3 C 3,5 C 4,2 C 4,1 C 0,0 C 71 % 78 % 0 % 1008,7 hPa 0,0 l/m 2,1 km/h (1 Bft) S 180 0 min 0,0 UV-I -0,5 C 4,1 C 2,3 km/h (1 Bft)
02.01.2014 08:25 4,3 C 12,3 C 3,5 C 4,2 C 4,1 C 0,0 C 71 % 78 % 0 % 1008,7 hPa 0,0 l/m 2,4 km/h (1 Bft) O-NO 67 0 min 0,0 UV-I -0,5 C 4,1 C 6,4 km/h (2 Bft)
02.01.2014 08:30 4,2 C 12,3 C 3,6 C 4,2 C 4,1 C 0,0 C 71 % 78 % 0 % 1008,6 hPa 0,0 l/m 2,9 km/h (1 Bft) W-SW 247 0 min 0,0 UV-I -0,6 C 4,1 C 2,6 km/h (1 Bft)
02.01.2014 08:35 4,2 C 12,3 C 3,5 C 4,2 C 4,1 C 0,0 C 71 % 77 % 0 % 1008,6 hPa 0,0 l/m 2,9 km/h (1 Bft) NO 45 0 min 0,0 UV-I -0,6 C 4,1 C 1,9 km/h (1 Bft)
02.01.2014 08:40 4,1 C 12,3 C 3,5 C 4,1 C 4,1 C 0,0 C 71 % 77 % 0 % 1008,6 hPa 0,0 l/m 2,1 km/h (1 Bft) W-SW 247 0 min 0,0 UV-I -0,7 C 4,1 C 5,1 km/h (1 Bft)
02.01.2014 08:45 4,1 C 12,3 C 3,5 C 4,1 C 4,0 C 0,0 C 71 % 77 % 0 % 1008,6 hPa 0,0 l/m 2,3 km/h (1 Bft) O-NO 67 0 min 0,0 UV-I -0,7 C 4,0 C 3,5 km/h (1 Bft)
02.01.2014 08:50 4,1 C 12,3 C 3,5 C 4,0 C 3,8 C 0,0 C 71 % 77 % 0 % 1008,6 hPa 0,0 l/m 3,2 km/h (1 Bft) O-NO 67 0 min 0,0 UV-I -0,7 C 3,8 C 7,7 km/h (2 Bft)
02.01.2014 08:55 4,0 C 12,3 C 3,4 C 3,9 C 3,7 C 0,0 C 71 % 77 % 0 % 1008,6 hPa 0,0 l/m 3,4 km/h (1 Bft) O-SO 112 0 min 0,0 UV-I -0,8 C 3,7 C 3,2 km/h (1 Bft)
02.01.2014 09:00 4,0 C 12,3 C 3,4 C 4,0 C 3,9 C 0,0 C 72 % 77 % 0 % 1008,6 hPa 0,0 l/m 3,1 km/h (1 Bft) O-SO 112 0 min 0,0 UV-I -0,6 C 3,9 C 9,5 km/h (2 Bft)
02.01.2014 09:05 4,0 C 12,3 C 3,4 C 4,0 C 3,9 C 0,0 C 72 % 78 % 0 % 1008,6 hPa 0,0 l/m 2,4 km/h (1 Bft) W-NW 292 0 min 0,0 UV-I -0,6 C 3,9 C 0,0 km/h (0 Bft)
02.01.2014 09:10 4,0 C 12,3 C 3,5 C 4,0 C 3,9 C 0,0 C 72 % 78 % 0 % 1008,9 hPa 0,0 l/m 1,8 km/h (1 Bft) O-NO 67 0 min 0,0 UV-I -0,6 C 3,9 C 2,6 km/h (1 Bft)
02.01.2014 09:15 4,0 C 12,3 C 3,5 C 4,0 C 3,9 C 0,0 C 72 % 77 % 0 % 1008,9 hPa 0,0 l/m 1,9 km/h (1 Bft) O-NO 67 0 min 0,0 UV-I -0,6 C 3,9 C 2,4 km/h (1 Bft)
02.01.2014 09:20 4,0 C 12,3 C 3,6 C 4,0 C 4,0 C 0,0 C 72 % 78 % 0 % 1008,9 hPa 0,0 l/m 2,1 km/h (1 Bft) O 90 0 min 0,0 UV-I -0,6 C 4,0 C 2,7 km/h (1 Bft)
02.01.2014 09:25 4,0 C 12,3 C 3,6 C 4,0 C 4,0 C 0,0 C 72 % 77 % 0 % 1008,9 hPa 0,0 l/m 1,8 km/h (1 Bft) S 180 0 min 0,0 UV-I -0,6 C 4,0 C 2,1 km/h (1 Bft)
02.01.2014 09:30 4,0 C 12,3 C 3,6 C 4,1 C 4,1 C 0,1 C 72 % 77 % 3 % 1009,1 hPa 0,0 l/m 2,1 km/h (1 Bft) O-NO 67 0 min 0,0 UV-I -0,6 C 4,1 C 3,2 km/h (1 Bft)
02.01.2014 09:35 4,0 C 12,3 C 3,7 C 4,1 C 4,1 C 0,1 C 72 % 77 % 3 % 1009,1 hPa 0,0 l/m 1,9 km/h (1 Bft) O-SO 112 0 min 0,0 UV-I -0,6 C 4,1 C 3,4 km/h (1 Bft)
02.01.2014 09:40 4,0 C 12,3 C 3,7 C 4,1 C 4,1 C 0,1 C 72 % 77 % 3 % 1009,1 hPa 0,0 l/m 1,9 km/h (1 Bft) O-NO 67 0 min 0,0 UV-I -0,6 C 4,1 C 3,2 km/h (1 Bft)
02.01.2014 09:45 4,0 C 12,3 C 3,7 C 4,2 C 4,2 C 0,2 C 73 % 77 % 5 % 1009,1 hPa 0,0 l/m 1,8 km/h (1 Bft) O-SO 112 0 min 0,0 UV-I -0,4 C 4,2 C 1,6 km/h (1 Bft)
02.01.2014 09:50 4,0 C 12,3 C 3,9 C 4,2 C 4,2 C 0,2 C 73 % 77 % 5 % 1009,1 hPa 0,0 l/m 1,6 km/h (1 Bft) O-SO 112 0 min 0,0 UV-I -0,4 C 4,2 C 3,1 km/h (1 Bft)
02.01.2014 09:55 4,0 C 12,4 C 3,8 C 4,3 C 4,3 C 0,3 C 73 % 77 % 8 % 1009,1 hPa 0,0 l/m 1,8 km/h (1 Bft) O-SO 112 0 min 0,0 UV-I -0,4 C 4,3 C 3,4 km/h (1 Bft)
02.01.2014 10:00 4,1 C 12,4 C 3,9 C 4,4 C 4,4 C 0,3 C 73 % 77 % 8 % 1009,1 hPa 0,0 l/m 1,8 km/h (1 Bft) O-SO 112 0 min 0,0 UV-I -0,3 C 4,4 C 1,9 km/h (1 Bft)
02.01.2014 10:05 4,1 C 12,4 C 3,9 C 4,4 C 4,4 C 0,3 C 73 % 77 % 8 % 1009,1 hPa 0,0 l/m 1,3 km/h (1 Bft) W-SW 247 0 min 0,0 UV-I -0,3 C 4,4 C 0,0 km/h (0 Bft)
02.01.2014 10:10 4,3 C 12,4 C 3,9 C 4,5 C 4,5 C 0,2 C 72 % 77 % 5 % 1009,9 hPa 0,0 l/m 1,4 km/h (1 Bft) SO 135 0 min 0,0 UV-I -0,3 C 4,5 C 2,9 km/h (1 Bft)
02.01.2014 10:15 4,3 C 12,4 C 4,0 C 4,6 C 4,6 C 0,3 C 72 % 77 % 8 % 1009,9 hPa 0,0 l/m 1,8 km/h (1 Bft) O-NO 67 0 min 0,0 UV-I -0,3 C 4,6 C 2,7 km/h (1 Bft)
02.01.2014 10:20 4,3 C 12,4 C 4,1 C 4,7 C 4,7 C 0,4 C 72 % 76 % 11 % 1009,9 hPa 0,0 l/m 1,6 km/h (1 Bft) SW 225 0 min 0,0 UV-I -0,3 C 4,7 C 4,7 km/h (1 Bft)
02.01.2014 10:25 4,3 C 12,4 C 4,0 C 4,7 C 4,7 C 0,4 C 72 % 76 % 11 % 1009,9 hPa 0,0 l/m 1,6 km/h (1 Bft) W-NW 292 0 min 0,0 UV-I -0,3 C 4,7 C 0,0 km/h (0 Bft)
02.01.2014 10:30 4,4 C 12,4 C 4,2 C 4,9 C 4,9 C 0,5 C 72 % 76 % 13 % 1009,9 hPa 0,0 l/m 1,3 km/h (1 Bft) W 270 0 min 0,0 UV-I -0,2 C 4,9 C 2,3 km/h (1 Bft)
02.01.2014 10:35 4,5 C 12,4 C 4,2 C 5,1 C 5,1 C 0,6 C 72 % 76 % 16 % 1009,9 hPa 0,0 l/m 1,3 km/h (1 Bft) O-SO 112 0 min 0,0 UV-I -0,1 C 5,1 C 2,1 km/h (1 Bft)
02.01.2014 10:40 4,5 C 12,4 C 4,4 C 5,2 C 5,2 C 0,7 C 72 % 76 % 18 % 1009,9 hPa 0,0 l/m 1,6 km/h (1 Bft) N-NO 22 0 min 0,0 UV-I -0,1 C 5,2 C 0,0 km/h (0 Bft)
02.01.2014 10:45 4,5 C 12,4 C 4,4 C 5,2 C 5,2 C 0,7 C 72 % 76 % 18 % 1009,9 hPa 0,0 l/m 1,4 km/h (1 Bft) O-NO 67 0 min 0,0 UV-I -0,1 C 5,2 C 2,3 km/h (1 Bft)
02.01.2014 10:50 4,7 C 12,4 C 4,4 C 5,3 C 5,3 C 0,6 C 72 % 76 % 16 % 1009,1 hPa 0,0 l/m 0,8 km/h (0 Bft) O-SO 112 0 min 0,0 UV-I 0,1 C 5,3 C 0,0 km/h (0 Bft)
02.01.2014 10:55 4,7 C 12,4 C 4,4 C 5,3 C 5,3 C 0,6 C 72 % 76 % 16 % 1009,1 hPa 0,0 l/m 0,6 km/h (0 Bft) O-NO 67 0 min 0,0 UV-I 0,1 C 5,3 C 1,6 km/h (1 Bft)
02.01.2014 11:00 4,7 C 12,4 C 4,6 C 5,4 C 5,4 C 0,7 C 72 % 75 % 18 % 1009,1 hPa 0,0 l/m 1,6 km/h (1 Bft) SO 135 0 min 0,0 UV-I 0,1 C 5,4 C 4,0 km/h (1 Bft)
02.01.2014 11:05 4,7 C 12,4 C 4,7 C 5,5 C 5,5 C 0,8 C 71 % 75 % 21 % 1009,1 hPa 0,0 l/m 1,8 km/h (1 Bft) NO 45 0 min 0,0 UV-I -0,1 C 5,5 C 1,8 km/h (1 Bft)
02.01.2014 11:10 4,8 C 12,4 C 4,8 C 5,7 C 5,7 C 0,9 C 72 % 75 % 24 % 1009,2 hPa 0,0 l/m 1,8 km/h (1 Bft) O-SO 112 0 min 0,0 UV-I 0,2 C 5,7 C 1,8 km/h (1 Bft)
02.01.2014 11:15 4,8 C 12,4 C 4,8 C 5,9 C 5,9 C 1,1 C 72 % 75 % 29 % 1009,2 hPa 0,0 l/m 1,6 km/h (1 Bft) NO 45 0 min 0,0 UV-I 0,2 C 5,9 C 1,6 km/h (1 Bft)
02.01.2014 11:20 4,9 C 12,4 C 5,0 C 6,0 C 6,0 C 1,1 C 71 % 75 % 29 % 1009,2 hPa 0,0 l/m 1,4 km/h (1 Bft) SO 135 0 min 0,0 UV-I 0,1 C 6,0 C 2,9 km/h (1 Bft)
02.01.2014 11:25 5,0 C 12,5 C 5,0 C 6,1 C 6,1 C 1,1 C 71 % 75 % 29 % 1009,2 hPa 0,0 l/m 1,4 km/h (1 Bft) N 360 0 min 0,0 UV-I 0,2 C 6,1 C 2,7 km/h (1 Bft)
02.01.2014 11:30 5,1 C 12,5 C 5,2 C 6,2 C 6,2 C 1,1 C 71 % 74 % 29 % 1009,4 hPa 0,0 l/m 1,6 km/h (1 Bft) O-NO 67 0 min 0,0 UV-I 0,3 C 6,2 C 2,6 km/h (1 Bft)
02.01.2014 11:35 5,1 C 12,5 C 5,2 C 6,2 C 6,2 C 1,1 C 71 % 74 % 29 % 1009,4 hPa 0,0 l/m 1,9 km/h (1 Bft) N-NO 22 0 min 0,0 UV-I 0,3 C 6,2 C 2,6 km/h (1 Bft)
02.01.2014 11:40 5,2 C 12,5 C 5,2 C 6,2 C 6,2 C 1,0 C 70 % 74 % 26 % 1009,4 hPa 0,0 l/m 2,1 km/h (1 Bft) O-SO 112 0 min 0,0 UV-I 0,2 C 6,2 C 2,9 km/h (1 Bft)
02.01.2014 11:45 5,2 C 12,5 C 5,3 C 6,2 C 6,2 C 1,0 C 69 % 74 % 26 % 1009,4 hPa 0,0 l/m 1,9 km/h (1 Bft) O-NO 67 0 min 0,0 UV-I -0,0 C 6,2 C 2,6 km/h (1 Bft)
02.01.2014 11:50 5,3 C 12,5 C 5,3 C 6,3 C 6,3 C 1,0 C 69 % 73 % 26 % 1009,3 hPa 0,0 l/m 2,3 km/h (1 Bft) O-SO 112 0 min 0,0 UV-I 0,1 C 6,3 C 2,9 km/h (1 Bft)
02.01.2014 11:55 5,3 C 12,5 C 5,3 C 6,3 C 6,3 C 1,0 C 69 % 73 % 26 % 1009,3 hPa 0,0 l/m 2,1 km/h (1 Bft) NW 315 0 min 0,0 UV-I 0,1 C 6,3 C 0,0 km/h (0 Bft)
02.01.2014 12:00 5,5 C 12,5 C 5,5 C 6,3 C 6,3 C 0,8 C 69 % 73 % 21 % 1009,3 hPa 0,0 l/m 1,6 km/h (1 Bft) O-NO 67 0 min 0,0 UV-I 0,3 C 6,3 C 0,0 km/h (0 Bft)
02.01.2014 12:05 5,5 C 12,5 C 5,5 C 6,4 C 6,4 C 0,9 C 69 % 73 % 24 % 1009,3 hPa 0,0 l/m 1,4 km/h (1 Bft) O-SO 112 0 min 0,0 UV-I 0,3 C 6,4 C 2,6 km/h (1 Bft)
02.01.2014 12:10 5,5 C 12,5 C 5,4 C 6,3 C 6,3 C 0,8 C 69 % 72 % 21 % 1009,0 hPa 0,0 l/m 2,1 km/h (1 Bft) O 90 0 min 0,0 UV-I 0,3 C 6,3 C 2,1 km/h (1 Bft)
02.01.2014 12:15 5,5 C 12,5 C 5,5 C 6,3 C 6,3 C 0,8 C 69 % 73 % 21 % 1009,0 hPa 0,0 l/m 1,9 km/h (1 Bft) O-NO 67 0 min 0,0 UV-I 0,3 C 6,3 C 0,0 km/h (0 Bft)
02.01.2014 12:20 5,5 C 12,5 C 5,4 C 6,3 C 6,3 C 0,8 C 69 % 72 % 21 % 1009,0 hPa 0,0 l/m 1,4 km/h (1 Bft) SO 135 0 min 0,0 UV-I 0,3 C 6,3 C 2,4 km/h (1 Bft)
02.01.2014 12:25 5,5 C 12,5 C 5,5 C 6,2 C 6,2 C 0,7 C 69 % 73 % 18 % 1009,0 hPa 0,0 l/m 1,4 km/h (1 Bft) O 90 0 min 0,0 UV-I 0,3 C 6,2 C 3,7 km/h (1 Bft)
02.01.2014 12:30 5,5 C 12,5 C 5,5 C 6,2 C 6,2 C 0,7 C 69 % 73 % 18 % 1009,0 hPa 0,0 l/m 1,6 km/h (1 Bft) SO 135 0 min 0,0 UV-I 0,3 C 6,2 C 0,0 km/h (0 Bft)
02.01.2014 12:35 5,4 C 12,5 C 5,3 C 6,1 C 6,1 C 0,7 C 69 % 73 % 18 % 1009,0 hPa 0,0 l/m 1,4 km/h (1 Bft) O 90 0 min 0,0 UV-I 0,2 C 6,1 C 2,1 km/h (1 Bft)
02.01.2014 12:41 5,5 C 12,5 C 5,3 C 6,1 C 6,1 C 0,6 C 69 % 73 % 16 % 1009,0 hPa 0,0 l/m 0,6 km/h (0 Bft) N 0 0 min 0,0 UV-I 0,3 C 6,1 C 0,0 km/h (0 Bft)
02.01.2014 13:00 5,6 C 12,6 C 5,5 C 6,2 C 6,2 C 0,6 C 69 % 73 % 16 % 1009,1 hPa 0,0 l/m 1,4 km/h (1 Bft) S-SO 157 0 min 0,0 UV-I 0,4 C 6,2 C 2,1 km/h (1 Bft)
02.01.2014 13:05 5,6 C 12,6 C 5,4 C 6,3 C 6,3 C 0,7 C 68 % 73 % 18 % 1009,1 hPa 0,0 l/m 1,6 km/h (1 Bft) N-NO 22 0 min 0,0 UV-I 0,2 C 6,3 C 2,9 km/h (1 Bft)
02.01.2014 13:10 5,6 C 12,5 C 5,5 C 6,3 C 6,3 C 0,7 C 69 % 73 % 18 % 1008,6 hPa 0,0 l/m 1,1 km/h (1 Bft) NO 45 0 min 0,0 UV-I 0,4 C 6,3 C 0,0 km/h (0 Bft)
02.01.2014 13:15 5,7 C 12,5 C 5,5 C 6,4 C 6,4 C 0,7 C 68 % 73 % 18 % 1008,6 hPa 0,0 l/m 1,1 km/h (1 Bft) O-NO 67 0 min 0,0 UV-I 0,3 C 6,4 C 0,0 km/h (0 Bft)
02.01.2014 13:20 5,7 C 12,5 C 5,6 C 6,4 C 6,4 C 0,7 C 68 % 73 % 18 % 1008,6 hPa 0,0 l/m 1,6 km/h (1 Bft) S-SO 157 0 min 0,0 UV-I 0,3 C 6,4 C 3,4 km/h (1 Bft)
02.01.2014 13:25 5,8 C 12,5 C 5,5 C 6,4 C 6,4 C 0,6 C 68 % 73 % 16 % 1008,6 hPa 0,0 l/m 1,1 km/h (1 Bft) O-SO 112 0 min 0,0 UV-I 0,4 C 6,4 C 0,0 km/h (0 Bft)
02.01.2014 13:30 5,9 C 12,5 C 5,6 C 6,4 C 6,4 C 0,5 C 68 % 73 % 13 % 1008,8 hPa 0,0 l/m 0,8 km/h (0 Bft) O-SO 112 0 min 0,0 UV-I 0,5 C 6,4 C 0,0 km/h (0 Bft)
02.01.2014 13:35 5,9 C 12,5 C 5,7 C 6,5 C 6,5 C 0,6 C 67 % 72 % 16 % 1008,8 hPa 0,0 l/m 1,1 km/h (1 Bft) O-SO 112 0 min 0,0 UV-I 0,3 C 6,5 C 3,1 km/h (1 Bft)
02.01.2014 13:40 5,9 C 12,5 C 5,7 C 6,5 C 6,5 C 0,6 C 67 % 72 % 16 % 1008,8 hPa 0,0 l/m 1,9 km/h (1 Bft) W 270 0 min 0,0 UV-I 0,3 C 6,5 C 0,0 km/h (0 Bft)
02.01.2014 13:45 5,9 C 12,5 C 5,7 C 6,5 C 6,5 C 0,6 C 67 % 72 % 16 % 1008,8 hPa 0,0 l/m 1,8 km/h (1 Bft) SW 225 0 min 0,0 UV-I 0,3 C 6,5 C 3,4 km/h (1 Bft)
02.01.2014 13:50 5,9 C 12,5 C 5,6 C 6,5 C 6,5 C 0,6 C 66 % 72 % 16 % 1009,0 hPa 0,0 l/m 1,9 km/h (1 Bft) O-NO 67 0 min 0,0 UV-I 0,0 C 6,5 C 2,1 km/h (1 Bft)
02.01.2014 13:55 5,9 C 12,5 C 5,6 C 6,5 C 6,5 C 0,6 C 67 % 72 % 16 % 1009,0 hPa 0,0 l/m 2,1 km/h (1 Bft) O-NO 67 0 min 0,0 UV-I 0,3 C 6,5 C 2,3 km/h (1 Bft)
02.01.2014 14:00 5,9 C 12,6 C 5,6 C 6,4 C 6,4 C 0,5 C 67 % 72 % 13 % 1009,0 hPa 0,0 l/m 1,9 km/h (1 Bft) S 180 0 min 0,0 UV-I 0,3 C 6,4 C 0,0 km/h (0 Bft)
02.01.2014 14:05 5,8 C 12,6 C 5,7 C 6,4 C 6,4 C 0,6 C 67 % 72 % 16 % 1009,0 hPa 0,0 l/m 1,8 km/h (1 Bft) O-SO 112 0 min 0,0 UV-I 0,2 C 6,4 C 2,3 km/h (1 Bft)
02.01.2014 14:10 5,9 C 12,6 C 5,6 C 6,3 C 6,3 C 0,4 C 67 % 72 % 11 % 1008,8 hPa 0,0 l/m 1,4 km/h (1 Bft) O-NO 67 0 min 0,0 UV-I 0,3 C 6,3 C 3,4 km/h (1 Bft)
02.01.2014 14:15 5,8 C 12,6 C 5,6 C 6,3 C 6,3 C 0,5 C 67 % 71 % 13 % 1008,8 hPa 0,0 l/m 1,3 km/h (1 Bft) O-NO 67 0 min 0,0 UV-I 0,2 C 6,3 C 1,9 km/h (1 Bft)
02.01.2014 14:20 5,9 C 12,6 C 5,6 C 6,2 C 6,2 C 0,3 C 68 % 71 % 8 % 1008,8 hPa 0,0 l/m 1,8 km/h (1 Bft) O-SO 112 0 min 0,0 UV-I 0,5 C 6,2 C 2,4 km/h (1 Bft)
02.01.2014 14:25 5,8 C 12,6 C 5,6 C 6,2 C 6,2 C 0,4 C 68 % 71 % 11 % 1008,8 hPa 0,0 l/m 2,3 km/h (1 Bft) O 90 0 min 0,0 UV-I 0,4 C 6,2 C 2,4 km/h (1 Bft)
02.01.2014 14:30 5,8 C 12,6 C 5,6 C 6,2 C 6,2 C 0,4 C 68 % 72 % 11 % 1008,8 hPa 0,0 l/m 1,9 km/h (1 Bft) SO 135 0 min 0,0 UV-I 0,4 C 6,2 C 2,7 km/h (1 Bft)
02.01.2014 14:35 5,9 C 12,6 C 5,7 C 6,2 C 6,2 C 0,3 C 68 % 72 % 8 % 1008,8 hPa 0,0 l/m 1,6 km/h (1 Bft) SO 135 0 min 0,0 UV-I 0,5 C 6,2 C 0,0 km/h (0 Bft)
02.01.2014 14:40 5,9 C 12,6 C 5,6 C 6,2 C 6,2 C 0,3 C 69 % 72 % 8 % 1008,8 hPa 0,0 l/m 1,4 km/h (1 Bft) O-NO 67 0 min 0,0 UV-I 0,7 C 6,2 C 5,1 km/h (1 Bft)
02.01.2014 14:45 6,0 C 12,6 C 5,6 C 6,3 C 6,3 C 0,3 C 69 % 73 % 8 % 1008,8 hPa 0,0 l/m 1,8 km/h (1 Bft) O-NO 67 0 min 0,0 UV-I 0,8 C 6,3 C 2,3 km/h (1 Bft)
02.01.2014 14:50 6,1 C 12,6 C 5,6 C 6,4 C 6,4 C 0,3 C 70 % 73 % 8 % 1009,1 hPa 0,0 l/m 1,3 km/h (1 Bft) S 180 0 min 0,0 UV-I 1,0 C 6,4 C 3,1 km/h (1 Bft)
02.01.2014 14:55 6,0 C 12,6 C 5,6 C 6,4 C 6,4 C 0,4 C 70 % 73 % 11 % 1009,1 hPa 0,0 l/m 0,3 km/h (0 Bft) O 90 0 min 0,0 UV-I 1,0 C 6,4 C 0,0 km/h (0 Bft)
02.01.2014 15:00 6,0 C 12,7 C 5,6 C 6,5 C 6,5 C 0,5 C 70 % 74 % 13 % 1009,1 hPa 0,0 l/m 0,3 km/h (0 Bft) O-NO 67 0 min 0,0 UV-I 1,0 C 6,5 C 0,0 km/h (0 Bft)
02.01.2014 15:05 6,1 C 12,7 C 5,7 C 6,5 C 6,5 C 0,4 C 70 % 74 % 11 % 1009,1 hPa 0,0 l/m 0,2 km/h (0 Bft) SO 135 0 min 0,0 UV-I 1,0 C 6,5 C 0,0 km/h (0 Bft)
02.01.2014 15:10 6,1 C 12,7 C 5,6 C 6,5 C 6,5 C 0,4 C 70 % 74 % 11 % 1008,6 hPa 0,0 l/m 0,3 km/h (0 Bft) SW 225 0 min 0,0 UV-I 1,0 C 6,5 C 3,1 km/h (1 Bft)
02.01.2014 15:15 6,1 C 12,7 C 5,5 C 6,4 C 6,4 C 0,3 C 71 % 74 % 8 % 1008,6 hPa 0,0 l/m 0,5 km/h (0 Bft) O 90 0 min 0,0 UV-I 1,2 C 6,4 C 0,0 km/h (0 Bft)
02.01.2014 15:20 6,1 C 12,7 C 5,6 C 6,3 C 6,3 C 0,2 C 71 % 75 % 5 % 1008,6 hPa 0,0 l/m 0,5 km/h (0 Bft) SO 135 0 min 0,0 UV-I 1,2 C 6,3 C 1,6 km/h (1 Bft)
02.01.2014 15:25 6,3 C 12,7 C 5,6 C 6,4 C 6,4 C 0,1 C 72 % 76 % 3 % 1008,6 hPa 0,0 l/m 0,2 km/h (0 Bft) O-SO 112 0 min 0,0 UV-I 1,6 C 6,4 C 0,0 km/h (0 Bft)
02.01.2014 15:30 6,3 C 12,7 C 5,7 C 6,5 C 6,5 C 0,2 C 73 % 76 % 5 % 1008,6 hPa 0,0 l/m 1,1 km/h (1 Bft) S-SO 157 0 min 0,0 UV-I 1,8 C 6,5 C 3,2 km/h (1 Bft)
02.01.2014 15:35 6,4 C 12,7 C 5,9 C 6,6 C 6,6 C 0,2 C 72 % 76 % 5 % 1008,6 hPa 0,0 l/m 1,4 km/h (1 Bft) S 180 0 min 0,0 UV-I 1,7 C 6,6 C 0,0 km/h (0 Bft)
02.01.2014 15:40 6,5 C 12,7 C 5,8 C 6,6 C 6,6 C 0,1 C 74 % 77 % 3 % 1008,6 hPa 0,0 l/m 1,4 km/h (1 Bft) W 270 0 min 0,0 UV-I 2,2 C 6,6 C 1,8 km/h (1 Bft)
02.01.2014 15:45 6,8 C 12,7 C 6,3 C 6,9 C 6,9 C 0,1 C 75 % 78 % 3 % 1008,6 hPa 0,0 l/m 2,1 km/h (1 Bft) S-SO 157 0 min 0,0 UV-I 2,7 C 6,9 C 4,8 km/h (1 Bft)
02.01.2014 15:50 7,3 C 12,8 C 6,5 C 7,2 C 6,9 C 0,0 C 75 % 78 % 0 % 1008,4 hPa 0,0 l/m 4,5 km/h (1 Bft) SW 225 0 min 0,0 UV-I 3,2 C 6,9 C 7,1 km/h (2 Bft)
02.01.2014 15:55 7,6 C 12,8 C 6,6 C 7,4 C 6,9 C 0,0 C 74 % 78 % 0 % 1008,4 hPa 0,0 l/m 5,6 km/h (1 Bft) S 180 0 min 0,0 UV-I 3,3 C 6,0 C 8,2 km/h (2 Bft)
02.01.2014 16:00 7,9 C 12,8 C 6,9 C 7,6 C 6,9 C 0,0 C 73 % 77 % 0 % 1008,4 hPa 0,0 l/m 6,8 km/h (2 Bft) S-SO 157 0 min 0,0 UV-I 3,4 C 5,7 C 12,2 km/h (2 Bft)
02.01.2014 16:05 7,9 C 12,8 C 7,0 C 7,5 C 6,8 C 0,0 C 73 % 77 % 0 % 1008,4 hPa 0,0 l/m 7,1 km/h (2 Bft) S 180 0 min 0,0 UV-I 3,4 C 5,5 C 7,6 km/h (2 Bft)
02.01.2014 16:10 8,0 C 12,8 C 7,1 C 7,7 C 7,0 C 0,0 C 72 % 77 % 0 % 1008,4 hPa 0,0 l/m 6,4 km/h (2 Bft) S 180 0 min 0,0 UV-I 3,3 C 5,9 C 9,0 km/h (2 Bft)
02.01.2014 16:15 8,0 C 12,8 C 7,1 C 7,7 C 7,2 C 0,0 C 72 % 77 % 0 % 1008,4 hPa 0,0 l/m 6,0 km/h (2 Bft) S-SW 202 0 min 0,0 UV-I 3,3 C 6,3 C 8,4 km/h (2 Bft)
02.01.2014 16:20 8,0 C 12,8 C 7,1 C 7,6 C 6,9 C 0,0 C 72 % 77 % 0 % 1008,4 hPa 0,0 l/m 6,8 km/h (2 Bft) N 360 0 min 0,0 UV-I 3,3 C 5,7 C 13,4 km/h (3 Bft)
02.01.2014 16:25 8,0 C 12,8 C 7,1 C 7,6 C 6,8 C 0,0 C 72 % 76 % 0 % 1008,4 hPa 0,0 l/m 6,9 km/h (2 Bft) S 180 0 min 0,0 UV-I 3,3 C 5,5 C 7,7 km/h (2 Bft)
02.01.2014 16:30 8,0 C 12,8 C 7,1 C 7,6 C 6,9 C 0,0 C 72 % 76 % 0 % 1008,7 hPa 0,0 l/m 6,1 km/h (2 Bft) S-SW 202 0 min 0,0 UV-I 3,3 C 5,9 C 11,3 km/h (2 Bft)
02.01.2014 16:35 8,0 C 12,8 C 7,1 C 7,6 C 6,9 C 0,0 C 72 % 76 % 0 % 1008,7 hPa 0,0 l/m 5,6 km/h (1 Bft) SO 135 0 min 0,0 UV-I 3,3 C 6,0 C 7,7 km/h (2 Bft)
02.01.2014 16:40 7,9 C 12,8 C 7,1 C 7,7 C 7,3 C 0,0 C 72 % 76 % 0 % 1008,7 hPa 0,0 l/m 4,0 km/h (1 Bft) S 180 0 min 0,0 UV-I 3,2 C 7,3 C 5,3 km/h (1 Bft)
02.01.2014 16:45 7,9 C 12,8 C 7,0 C 7,7 C 7,4 C 0,0 C 72 % 77 % 0 % 1008,7 hPa 0,0 l/m 3,4 km/h (1 Bft) SW 225 0 min 0,0 UV-I 3,2 C 7,4 C 6,0 km/h (2 Bft)
02.01.2014 16:50 7,8 C 12,9 C 6,9 C 7,6 C 7,3 C 0,0 C 72 % 77 % 0 % 1008,8 hPa 0,0 l/m 3,4 km/h (1 Bft) NO 45 0 min 0,0 UV-I 3,1 C 7,3 C 3,1 km/h (1 Bft)
02.01.2014 16:55 7,9 C 12,9 C 6,8 C 7,6 C 7,1 C 0,0 C 73 % 77 % 0 % 1008,8 hPa 0,0 l/m 3,9 km/h (1 Bft) W-NW 292 0 min 0,0 UV-I 3,4 C 7,1 C 0,0 km/h (0 Bft)
02.01.2014 17:00 7,7 C 12,9 C 6,6 C 7,5 C 7,0 C 0,0 C 73 % 77 % 0 % 1008,8 hPa 0,0 l/m 3,7 km/h (1 Bft) W-SW 247 0 min 0,0 UV-I 3,2 C 7,0 C 3,2 km/h (1 Bft)
02.01.2014 17:05 7,6 C 12,9 C 6,4 C 7,4 C 7,0 C 0,0 C 73 % 77 % 0 % 1008,8 hPa 0,0 l/m 3,1 km/h (1 Bft) W 270 0 min 0,0 UV-I 3,1 C 7,0 C 1,9 km/h (1 Bft)
02.01.2014 17:10 7,5 C 12,9 C 6,5 C 7,3 C 6,9 C 0,0 C 73 % 78 % 0 % 1008,9 hPa 0,0 l/m 2,6 km/h (1 Bft) SO 135 0 min 0,0 UV-I 3,0 C 6,9 C 5,1 km/h (1 Bft)
02.01.2014 17:15 7,6 C 12,9 C 6,5 C 7,3 C 6,8 C 0,0 C 74 % 78 % 0 % 1008,9 hPa 0,0 l/m 2,4 km/h (1 Bft) O 90 0 min 0,0 UV-I 3,3 C 6,8 C 3,9 km/h (1 Bft)
02.01.2014 17:20 7,6 C 12,9 C 6,7 C 7,2 C 6,4 C 0,0 C 73 % 78 % 0 % 1008,9 hPa 0,0 l/m 4,0 km/h (1 Bft) S 180 0 min 0,0 UV-I 3,1 C 6,4 C 5,5 km/h (1 Bft)
02.01.2014 17:25 7,6 C 12,9 C 6,5 C 7,2 C 6,3 C 0,0 C 73 % 78 % 0 % 1008,9 hPa 0,0 l/m 4,7 km/h (1 Bft) S 180 0 min 0,0 UV-I 3,1 C 5,7 C 6,8 km/h (2 Bft)
02.01.2014 17:30 7,6 C 12,9 C 6,5 C 7,1 C 6,2 C 0,0 C 73 % 78 % 0 % 1009,2 hPa 0,0 l/m 5,1 km/h (1 Bft) S 180 0 min 0,0 UV-I 3,1 C 5,4 C 6,6 km/h (2 Bft)
02.01.2014 17:35 7,5 C 12,9 C 6,6 C 7,1 C 6,2 C 0,0 C 73 % 77 % 0 % 1009,2 hPa 0,0 l/m 5,0 km/h (1 Bft) O 90 0 min 0,0 UV-I 3,0 C 5,4 C 1,6 km/h (1 Bft)
02.01.2014 17:40 7,5 C 12,9 C 6,5 C 7,2 C 6,6 C 0,0 C 73 % 77 % 0 % 1009,2 hPa 0,0 l/m 3,9 km/h (1 Bft) NW 315 0 min 0,0 UV-I 3,0 C 6,6 C 2,3 km/h (1 Bft)
02.01.2014 17:45 7,4 C 12,9 C 6,4 C 7,2 C 6,7 C 0,0 C 73 % 78 % 0 % 1009,2 hPa 0,0 l/m 3,5 km/h (1 Bft) O-SO 112 0 min 0,0 UV-I 2,9 C 6,7 C 7,4 km/h (2 Bft)
02.01.2014 17:50 7,5 C 12,9 C 6,4 C 7,1 C 6,2 C 0,0 C 74 % 78 % 0 % 1009,3 hPa 0,0 l/m 4,7 km/h (1 Bft) S 180 0 min 0,0 UV-I 3,2 C 5,6 C 5,6 km/h (1 Bft)
02.01.2014 17:55 7,4 C 12,9 C 6,4 C 6,9 C 5,9 C 0,0 C 74 % 78 % 0 % 1009,3 hPa 0,0 l/m 6,0 km/h (2 Bft) S 180 0 min 0,0 UV-I 3,1 C 4,8 C 3,7 km/h (1 Bft)
02.01.2014 18:00 7,5 C 13,0 C 6,4 C 7,2 C 6,5 C 0,0 C 74 % 78 % 0 % 1009,3 hPa 0,0 l/m 3,9 km/h (1 Bft) N-NW 337 0 min 0,0 UV-I 3,2 C 6,5 C 3,1 km/h (1 Bft)
02.01.2014 18:05 7,3 C 13,0 C 6,3 C 7,1 C 6,7 C 0,0 C 74 % 78 % 0 % 1009,3 hPa 0,0 l/m 2,7 km/h (1 Bft) S 180 0 min 0,0 UV-I 3,0 C 6,7 C 3,4 km/h (1 Bft)
02.01.2014 18:10 7,3 C 13,0 C 6,3 C 7,0 C 6,5 C 0,0 C 74 % 78 % 0 % 1009,6 hPa 0,0 l/m 2,9 km/h (1 Bft) S 180 0 min 0,0 UV-I 3,0 C 6,5 C 4,2 km/h (1 Bft)
02.01.2014 18:15 7,2 C 13,0 C 6,3 C 6,9 C 6,4 C 0,0 C 74 % 78 % 0 % 1009,6 hPa 0,0 l/m 2,9 km/h (1 Bft) S 180 0 min 0,0 UV-I 2,9 C 6,4 C 3,9 km/h (1 Bft)
02.01.2014 18:20 7,1 C 13,0 C 6,0 C 6,8 C 6,3 C 0,0 C 74 % 78 % 0 % 1009,6 hPa 0,0 l/m 3,1 km/h (1 Bft) S-SO 157 0 min 0,0 UV-I 2,8 C 6,3 C 5,8 km/h (2 Bft)
02.01.2014 18:25 7,0 C 13,0 C 6,0 C 6,7 C 6,2 C 0,0 C 74 % 78 % 0 % 1009,6 hPa 0,0 l/m 2,9 km/h (1 Bft) W-SW 247 0 min 0,0 UV-I 2,7 C 6,2 C 6,4 km/h (2 Bft)
02.01.2014 18:30 7,1 C 13,0 C 6,0 C 6,6 C 5,7 C 0,0 C 75 % 79 % 0 % 1009,6 hPa 0,0 l/m 4,5 km/h (1 Bft) S-SW 202 0 min 0,0 UV-I 3,0 C 5,7 C 7,4 km/h (2 Bft)
02.01.2014 18:35 7,1 C 13,0 C 6,0 C 6,5 C 5,4 C 0,0 C 75 % 79 % 0 % 1009,6 hPa 0,0 l/m 6,1 km/h (2 Bft) S-SO 157 0 min 0,0 UV-I 3,0 C 4,2 C 7,2 km/h (2 Bft)
02.01.2014 18:41 7,1 C 13,0 C 6,0 C 6,6 C 5,6 C 0,0 C 75 % 79 % 0 % 1009,6 hPa 0,0 l/m 5,6 km/h (1 Bft) N 0 0 min 0,0 UV-I 3,0 C 4,5 C 8,0 km/h (2 Bft)
02.01.2014 19:00 7,1 C 13,0 C 6,3 C 6,8 C 6,2 C 0,0 C 75 % 79 % 0 % 1009,9 hPa 0,0 l/m 4,7 km/h (1 Bft) W-SW 247 0 min 0,0 UV-I 3,0 C 5,6 C 6,8 km/h (2 Bft)
02.01.2014 19:05 7,2 C 13,0 C 6,4 C 6,7 C 5,8 C 0,0 C 76 % 79 % 0 % 1009,9 hPa 0,0 l/m 6,0 km/h (2 Bft) S 180 0 min 0,0 UV-I 3,3 C 4,6 C 9,8 km/h (2 Bft)
02.01.2014 19:10 7,3 C 13,0 C 6,5 C 6,9 C 6,2 C 0,0 C 75 % 79 % 0 % 1010,2 hPa 0,0 l/m 6,0 km/h (2 Bft) S-SO 157 0 min 0,0 UV-I 3,2 C 5,1 C 9,0 km/h (2 Bft)
02.01.2014 19:15 7,4 C 13,1 C 6,6 C 7,0 C 6,2 C 0,0 C 75 % 79 % 0 % 1010,2 hPa 0,0 l/m 6,3 km/h (2 Bft) W-SW 247 0 min 0,0 UV-I 3,3 C 5,0 C 6,9 km/h (2 Bft)
02.01.2014 19:20 7,5 C 13,1 C 6,7 C 7,1 C 6,2 C 0,0 C 75 % 79 % 0 % 1010,2 hPa 0,0 l/m 7,1 km/h (2 Bft) S-SO 157 0 min 0,0 UV-I 3,4 C 4,8 C 6,9 km/h (2 Bft)
02.01.2014 19:25 7,5 C 13,1 C 6,8 C 7,2 C 6,0 C 0,0 C 75 % 79 % 0 % 1010,2 hPa 0,0 l/m 8,2 km/h (2 Bft) S 180 0 min 0,0 UV-I 3,4 C 4,3 C 11,9 km/h (2 Bft)
02.01.2014 19:30 7,7 C 13,1 C 6,8 C 7,1 C 6,0 C 0,0 C 74 % 78 % 0 % 1010,1 hPa 0,0 l/m 9,0 km/h (2 Bft) SW 225 0 min 0,0 UV-I 3,4 C 4,1 C 17,5 km/h (3 Bft)
02.01.2014 19:35 7,7 C 13,1 C 6,9 C 7,3 C 6,1 C 0,0 C 74 % 78 % 0 % 1010,1 hPa 0,0 l/m 9,2 km/h (2 Bft) O-SO 112 0 min 0,0 UV-I 3,4 C 4,1 C 9,7 km/h (2 Bft)
02.01.2014 19:40 7,7 C 13,1 C 6,9 C 7,4 C 6,3 C 0,0 C 74 % 78 % 0 % 1010,1 hPa 0,0 l/m 8,2 km/h (2 Bft) S-SW 202 0 min 0,0 UV-I 3,4 C 4,6 C 9,3 km/h (2 Bft)
02.01.2014 19:45 7,7 C 13,1 C 7,0 C 7,3 C 6,4 C 0,0 C 74 % 78 % 0 % 1010,1 hPa 0,0 l/m 6,9 km/h (2 Bft) W 270 0 min 0,0 UV-I 3,4 C 5,1 C 4,5 km/h (1 Bft)
02.01.2014 19:50 7,7 C 13,1 C 7,1 C 7,3 C 6,6 C 0,0 C 74 % 78 % 0 % 1010,1 hPa 0,0 l/m 6,4 km/h (2 Bft) W 270 0 min 0,0 UV-I 3,4 C 5,4 C 9,2 km/h (2 Bft)
02.01.2014 19:55 7,7 C 13,1 C 7,0 C 7,4 C 6,7 C 0,0 C 74 % 77 % 0 % 1010,1 hPa 0,0 l/m 6,1 km/h (2 Bft) S-SW 202 0 min 0,0 UV-I 3,4 C 5,6 C 9,0 km/h (2 Bft)
02.01.2014 20:00 7,7 C 13,1 C 7,1 C 7,4 C 6,9 C 0,0 C 74 % 78 % 0 % 1010,1 hPa 0,0 l/m 5,5 km/h (1 Bft) SO 135 0 min 0,0 UV-I 3,4 C 6,1 C 8,0 km/h (2 Bft)
02.01.2014 20:05 7,7 C 13,1 C 7,1 C 7,4 C 6,9 C 0,0 C 74 % 78 % 0 % 1010,1 hPa 0,0 l/m 5,5 km/h (1 Bft) S 180 0 min 0,0 UV-I 3,4 C 6,1 C 8,5 km/h (2 Bft)
02.01.2014 20:10 7,7 C 13,1 C 7,1 C 7,4 C 6,7 C 0,0 C 74 % 77 % 0 % 1010,4 hPa 0,0 l/m 6,1 km/h (2 Bft) SW 225 0 min 0,0 UV-I 3,4 C 5,6 C 5,3 km/h (1 Bft)
02.01.2014 20:15 7,7 C 13,1 C 7,1 C 7,3 C 6,6 C 0,0 C 74 % 77 % 0 % 1010,4 hPa 0,0 l/m 6,4 km/h (2 Bft) S 180 0 min 0,0 UV-I 3,4 C 5,4 C 7,7 km/h (2 Bft)
02.01.2014 20:20 7,6 C 13,1 C 7,1 C 7,3 C 6,7 C 0,0 C 74 % 77 % 0 % 1010,4 hPa 0,0 l/m 5,6 km/h (1 Bft) S-SW 202 0 min 0,0 UV-I 3,3 C 5,8 C 15,1 km/h (3 Bft)
02.01.2014 20:25 7,6 C 13,1 C 7,0 C 7,3 C 6,6 C 0,0 C 74 % 77 % 0 % 1010,4 hPa 0,0 l/m 6,1 km/h (2 Bft) N-NW 337 0 min 0,0 UV-I 3,3 C 5,5 C 6,0 km/h (2 Bft)
02.01.2014 20:30 7,6 C 13,2 C 7,1 C 7,3 C 6,6 C 0,0 C 74 % 77 % 0 % 1010,9 hPa 0,0 l/m 6,0 km/h (2 Bft) S-SO 157 0 min 0,0 UV-I 3,3 C 5,6 C 4,3 km/h (1 Bft)
02.01.2014 20:35 7,6 C 13,3 C 7,1 C 7,4 C 7,1 C 0,0 C 74 % 77 % 0 % 1010,9 hPa 0,0 l/m 4,5 km/h (1 Bft) SW 225 0 min 0,0 UV-I 3,3 C 7,1 C 10,3 km/h (2 Bft)
02.01.2014 20:40 7,6 C 13,2 C 6,9 C 7,2 C 6,5 C 0,0 C 74 % 77 % 0 % 1010,9 hPa 0,0 l/m 6,3 km/h (2 Bft) N-NW 337 0 min 0,0 UV-I 3,3 C 5,4 C 5,3 km/h (1 Bft)
02.01.2014 20:45 7,5 C 13,3 C 6,9 C 7,1 C 6,2 C 0,0 C 74 % 77 % 0 % 1010,9 hPa 0,0 l/m 6,8 km/h (2 Bft) NW 315 0 min 0,0 UV-I 3,2 C 4,9 C 3,1 km/h (1 Bft)
02.01.2014 20:50 7,5 C 13,3 C 6,8 C 7,2 C 6,6 C 0,0 C 75 % 78 % 0 % 1011,4 hPa 0,0 l/m 5,3 km/h (1 Bft) S 180 0 min 0,0 UV-I 3,4 C 5,8 C 3,1 km/h (1 Bft)
02.01.2014 20:55 7,5 C 13,3 C 6,8 C 7,2 C 6,7 C 0,0 C 75 % 78 % 0 % 1011,4 hPa 0,0 l/m 4,8 km/h (1 Bft) SO 135 0 min 0,0 UV-I 3,4 C 6,1 C 4,8 km/h (1 Bft)
02.01.2014 21:00 7,3 C 13,3 C 6,9 C 7,1 C 6,8 C 0,0 C 75 % 78 % 0 % 1011,4 hPa 0,0 l/m 4,5 km/h (1 Bft) SW 225 0 min 0,0 UV-I 3,2 C 6,8 C 8,9 km/h (2 Bft)
02.01.2014 21:05 7,2 C 13,3 C 6,7 C 7,0 C 6,6 C 0,0 C 75 % 78 % 0 % 1011,4 hPa 0,0 l/m 4,7 km/h (1 Bft) SW 225 0 min 0,0 UV-I 3,1 C 6,0 C 10,9 km/h (2 Bft)
02.01.2014 21:10 7,3 C 13,3 C 6,7 C 7,0 C 6,4 C 0,0 C 76 % 78 % 0 % 1010,8 hPa 0,0 l/m 4,8 km/h (1 Bft) SW 225 0 min 0,0 UV-I 3,4 C 5,7 C 6,8 km/h (2 Bft)
02.01.2014 21:15 7,2 C 13,3 C 6,7 C 6,9 C 6,4 C 0,0 C 76 % 78 % 0 % 1010,8 hPa 0,0 l/m 4,7 km/h (1 Bft) SO 135 0 min 0,0 UV-I 3,3 C 5,8 C 6,1 km/h (2 Bft)
02.01.2014 21:20 7,1 C 13,3 C 6,5 C 6,8 C 6,2 C 0,0 C 76 % 78 % 0 % 1010,8 hPa 0,0 l/m 5,1 km/h (1 Bft) W 270 0 min 0,0 UV-I 3,2 C 5,4 C 9,7 km/h (2 Bft)
02.01.2014 21:25 7,1 C 13,3 C 6,5 C 6,8 C 6,1 C 0,0 C 76 % 79 % 0 % 1010,8 hPa 0,0 l/m 5,1 km/h (1 Bft) W 270 0 min 0,0 UV-I 3,2 C 5,3 C 7,1 km/h (2 Bft)
02.01.2014 21:30 7,1 C 13,3 C 6,5 C 6,8 C 6,2 C 0,0 C 76 % 79 % 0 % 1011,4 hPa 0,0 l/m 5,1 km/h (1 Bft) SO 135 0 min 0,0 UV-I 3,2 C 5,4 C 5,8 km/h (2 Bft)
02.01.2014 21:35 7,1 C 13,3 C 6,5 C 6,8 C 6,1 C 0,0 C 76 % 79 % 0 % 1011,4 hPa 0,0 l/m 5,1 km/h (1 Bft) NW 315 0 min 0,0 UV-I 3,2 C 5,3 C 7,1 km/h (2 Bft)
02.01.2014 21:40 7,1 C 13,3 C 6,4 C 6,7 C 6,0 C 0,0 C 76 % 79 % 0 % 1011,4 hPa 0,0 l/m 5,1 km/h (1 Bft) SW 225 0 min 0,0 UV-I 3,2 C 5,2 C 5,0 km/h (1 Bft)
02.01.2014 21:45 7,1 C 13,3 C 6,4 C 6,6 C 5,7 C 0,0 C 77 % 79 % 0 % 1011,4 hPa 0,0 l/m 6,0 km/h (2 Bft) NW 315 0 min 0,0 UV-I 3,3 C 4,5 C 9,2 km/h (2 Bft)
02.01.2014 21:50 6,9 C 13,3 C 6,4 C 6,4 C 5,4 C 0,0 C 77 % 79 % 0 % 1011,3 hPa 0,0 l/m 6,8 km/h (2 Bft) S-SO 157 0 min 0,0 UV-I 3,2 C 3,9 C 16,7 km/h (3 Bft)
02.01.2014 21:55 6,9 C 13,4 C 6,3 C 6,4 C 5,4 C 0,0 C 77 % 79 % 0 % 1011,3 hPa 0,0 l/m 6,3 km/h (2 Bft) W-SW 247 0 min 0,0 UV-I 3,2 C 4,1 C 8,9 km/h (2 Bft)
02.01.2014 22:00 6,8 C 13,4 C 6,1 C 6,3 C 5,3 C 0,0 C 77 % 80 % 0 % 1011,3 hPa 0,0 l/m 5,5 km/h (1 Bft) SW 225 0 min 0,0 UV-I 3,1 C 4,2 C 6,8 km/h (2 Bft)
02.01.2014 22:05 6,7 C 13,4 C 6,0 C 6,3 C 5,4 C 0,0 C 77 % 80 % 0 % 1011,3 hPa 0,0 l/m 5,1 km/h (1 Bft) W-SW 247 0 min 0,0 UV-I 3,0 C 4,5 C 9,5 km/h (2 Bft)
02.01.2014 22:10 6,7 C 13,4 C 5,9 C 6,2 C 5,2 C 0,0 C 78 % 80 % 0 % 1011,5 hPa 0,0 l/m 5,0 km/h (1 Bft) S-SO 157 0 min 0,0 UV-I 3,1 C 4,3 C 21,6 km/h (4 Bft)
02.01.2014 22:15 6,7 C 13,4 C 5,9 C 6,2 C 5,1 C 0,0 C 78 % 81 % 0 % 1011,5 hPa 0,0 l/m 5,0 km/h (1 Bft) NO 45 0 min 0,0 UV-I 3,1 C 4,2 C 4,8 km/h (1 Bft)
02.01.2014 22:17 6,5 C 13,4 C 5,9 C 5,9 C 4,8 C 0,0 C 79 % 81 % 0 % 1011,5 hPa 0,0 l/m 5,3 km/h (1 Bft) O 90 0 min 0,0 UV-I 3,1 C 3,7 C 7,6 km/h (2 Bft)
02.01.2014 22:22 6,4 C 13,4 C 5,6 C 5,9 C 4,9 C 0,0 C 79 % 81 % 0 % 1011,5 hPa 0,0 l/m 5,0 km/h (1 Bft) W 270 0 min 0,0 UV-I 3,0 C 4,0 C 11,3 km/h (2 Bft)
02.01.2014 22:51 6,1 C 13,4 C 5,2 C 5,4 C 4,1 C 0,0 C 79 % 82 % 0 % 1012,6 hPa 0,0 l/m 6,1 km/h (2 Bft) S-SO 157 0 min 0,0 UV-I 2,7 C 2,7 C 8,5 km/h (2 Bft)
02.01.2014 22:55 6,1 C 13,4 C 5,2 C 5,5 C 4,2 C 0,0 C 80 % 82 % 0 % 1012,6 hPa 0,0 l/m 5,5 km/h (1 Bft) W-NW 292 0 min 0,0 UV-I 2,9 C 3,0 C 7,4 km/h (2 Bft)
02.01.2014 23:00 6,0 C 13,4 C 5,2 C 5,5 C 4,4 C 0,0 C 80 % 82 % 0 % 1012,6 hPa 0,0 l/m 4,8 km/h (1 Bft) W-SW 247 0 min 0,0 UV-I 2,8 C 3,5 C 8,7 km/h (2 Bft)
02.01.2014 23:05 5,9 C 13,4 C 5,1 C 5,4 C 4,3 C 0,0 C 80 % 82 % 0 % 1012,6 hPa 0,0 l/m 5,1 km/h (1 Bft) S-SW 202 0 min 0,0 UV-I 2,7 C 3,2 C 7,1 km/h (2 Bft)
02.01.2014 23:10 5,9 C 13,4 C 5,2 C 5,2 C 3,9 C 0,0 C 80 % 82 % 0 % 1012,4 hPa 0,0 l/m 6,3 km/h (2 Bft) W-SW 247 0 min 0,0 UV-I 2,7 C 2,4 C 21,7 km/h (4 Bft)
02.01.2014 23:15 5,9 C 13,4 C 5,1 C 5,2 C 3,8 C 0,0 C 81 % 82 % 0 % 1012,4 hPa 0,0 l/m 6,4 km/h (2 Bft) N-NO 22 0 min 0,0 UV-I 2,9 C 2,2 C 7,6 km/h (2 Bft)
02.01.2014 23:20 5,9 C 13,5 C 5,1 C 5,3 C 4,0 C 0,0 C 80 % 83 % 0 % 1012,4 hPa 0,0 l/m 6,0 km/h (2 Bft) SW 225 0 min 0,0 UV-I 2,7 C 2,6 C 4,5 km/h (1 Bft)
02.01.2014 23:25 5,8 C 13,5 C 5,1 C 5,3 C 4,2 C 0,0 C 80 % 83 % 0 % 1012,4 hPa 0,0 l/m 5,3 km/h (1 Bft) S 180 0 min 0,0 UV-I 2,6 C 3,1 C 5,3 km/h (1 Bft)
02.01.2014 23:30 5,8 C 13,5 C 5,1 C 5,4 C 4,5 C 0,0 C 81 % 83 % 0 % 1012,4 hPa 0,0 l/m 4,0 km/h (1 Bft) S 180 0 min 0,0 UV-I 2,8 C 4,5 C 5,3 km/h (1 Bft)
02.01.2014 23:35 5,9 C 13,5 C 5,1 C 5,5 C 4,8 C 0,0 C 81 % 83 % 0 % 1012,4 hPa 0,0 l/m 3,4 km/h (1 Bft) O-NO 67 0 min 0,0 UV-I 2,9 C 4,8 C 3,1 km/h (1 Bft)
02.01.2014 23:40 5,9 C 13,5 C 5,1 C 5,5 C 4,7 C 0,0 C 81 % 83 % 0 % 1012,4 hPa 0,0 l/m 3,4 km/h (1 Bft) W-SW 247 0 min 0,0 UV-I 2,9 C 4,7 C 14,3 km/h (3 Bft)
02.01.2014 23:45 5,8 C 13,5 C 5,1 C 5,3 C 4,3 C 0,0 C 81 % 83 % 0 % 1012,4 hPa 0,0 l/m 4,7 km/h (1 Bft) W 270 0 min 0,0 UV-I 2,8 C 3,4 C 3,9 km/h (1 Bft)
02.01.2014 23:50 5,9 C 13,5 C 5,1 C 5,2 C 3,9 C 0,0 C 81 % 83 % 0 % 1012,7 hPa 0,0 l/m 6,1 km/h (2 Bft) W-SW 247 0 min 0,0 UV-I 2,9 C 2,4 C 11,3 km/h (2 Bft)
02.01.2014 23:55 5,8 C 13,5 C 5,1 C 5,4 C 4,7 C 0,0 C 81 % 83 % 0 % 1012,7 hPa 0,0 l/m 4,2 km/h (1 Bft) N-NO 22 0 min 0,0 UV-I 2,8 C 4,7 C 1,9 km/h (1 Bft)
_ Min-Zeit 00:15 02:35 00:10 00:06 00:06 03:15 13:50 14:15 00:06 15:50 - 00:35 - - - 00:06 00:15 00:06 00:06
Minimum _ -1,7 C 12,1 C -1,3 C -1,1 C -1,1 C 0,0 C 66 % 71 % 0 % 1008,4 hPa - 0,0 km/h (0 Bft) - - - 0,0 UV-I -3,3 C -1,1 C 0,0 km/h (0 Bft)
_ Max-Zeit 16:10 23:20 16:10 16:10 16:45 00:41 00:58 00:06 11:15 00:10 00:06 19:35 - - 00:06 00:06 16:00 16:45 23:10
Maximum _ 8,0 C 13,5 C 7,1 C 7,7 C 7,4 C 1,2 C 91 % 88 % 29 % 1012,8 hPa 0,0 l/m 9,2 km/h
O-SO (2 Bft)
- - 0 min 0,0 UV-I 3,4 C 7,4 C 21,7 km/h
W-SW (4 Bft)
Durchschnitt _ 5,0 C 12,6 C 4,4 C 5,1 C 4,8 C 0,2 C 76 % 80 % 4 % 1009,8 hPa #0,0 l/m 2,7 km/h (1 Bft) S - #0 min. 0,0 UV-I 1,1 C 4,5 C 4,0 km/h (1 Bft)
2014 www.wetterstation-wechselburg.de